Exy Johnson — WDB3395 — position and weather

sailwx.info

Track history (hours):
 
Tides and Currents Weather Stations Pressure Air Temp Water Temp Dewpoint Dewpoint Depression Visibility Wind Speed Wind Dir Waves Ship Positions

Exy Johnson (United States)

Ship's website: http://www.lamitopsail.org/index.asp

Owner: Los Angeles Maritime Institute, San Pedro, CA. More information available from US FCC via Universal Licensing System and Coast Guard Vessel Documentation Center.

Last reported at 2017-Jul-26 03:30 UTC. Time now 2017-Jul-27 00:37 UTC.
Position N 33°24' W 118°22'.

Length 34 m; draft 3.7 m.

Type: Sailing vessel. MMSI: 366883970.

Date/timePositionNaut miles runAvg speedWind from/ knotsBaromVisibWave heightAir tempDewpointWater temp
2017-Jul-26 03:30N 33°24' W 118°22'0 0.0
2017-Jul-26 02:34N 33°24' W 118°22'16 4.4
2017-Jul-25 22:54N 33°39' W 118°16'2 5.1
2017-Jul-25 22:30N 33°41' W 118°15'2 3.0
2017-Jul-25 21:59N 33°43' W 118°15'1 2.1
2017-Jul-25 21:30N 33°43' W 118°16'1 0.7
2017-Jul-25 20:17N 33°44' W 118°17'0 0.0
2017-Jul-25 20:00N 33°44' W 118°17'0 0.0
2017-Jul-25 19:30N 33°44' W 118°17'0 0.3
2017-Jul-25 18:58N 33°44' W 118°17'2 3.5
2017-Jul-25 18:30N 33°43' W 118°15'2 4.2
2017-Jul-25 18:00N 33°43' W 118°13'3 0.2
2017-Jul-25 04:41N 33°45' W 118°10'0 0.1
2017-Jul-25 04:23N 33°45' W 118°10'0 0.0
2017-Jul-25 03:19N 33°45' W 118°10'0 0.0
2017-Jul-25 02:56N 33°45' W 118°10'0 0.1
2017-Jul-25 02:23N 33°45' W 118°10'0 0.5
2017-Jul-25 02:00N 33°45' W 118°10'2 3.4
2017-Jul-25 01:30N 33°44' W 118°11'2 4.5
2017-Jul-25 01:00N 33°42' W 118°10'2 3.3
2017-Jul-25 00:29N 33°40' W 118°09'2 3.3
2017-Jul-24 23:59N 33°38' W 118°09'1 2.3
2017-Jul-24 23:30N 33°39' W 118°10'2 4.0
2017-Jul-24 23:00N 33°41' W 118°12'2 3.8
2017-Jul-24 22:30N 33°42' W 118°14'2 3.1
2017-Jul-24 22:00N 33°43' W 118°15'1 1.6
2017-Jul-24 21:29N 33°43' W 118°16'0 0.5
2017-Jul-24 21:00N 33°43' W 118°16'0 0.2
2017-Jul-24 20:30N 33°43' W 118°16'1 1.8
2017-Jul-24 19:59N 33°44' W 118°17'0 0.0
2017-Jul-24 17:58N 33°44' W 118°17'0 0.0
2017-Jul-24 10:06N 33°44' W 118°17'0 0.0
2017-Jul-24 09:20N 33°44' W 118°17'0 0.0
2017-Jul-24 08:54N 33°44' W 118°17'0 0.0
2017-Jul-24 05:03N 33°44' W 118°17'0 0.0
2017-Jul-24 04:56N 33°44' W 118°17'0 0.0
2017-Jul-24 03:05N 33°44' W 118°17'0 0.0
2017-Jul-24 02:46N 33°44' W 118°17'0 0.0
2017-Jul-24 02:25N 33°44' W 118°17'0 0.0
2017-Jul-24 01:58N 33°44' W 118°17'0 0.0
2017-Jul-24 01:20N 33°44' W 118°17'0 0.0
2017-Jul-24 00:16N 33°44' W 118°17'0 0.0
2017-Jul-23 23:53N 33°44' W 118°17'0 0.0
2017-Jul-23 22:30N 33°44' W 118°17'0 0.0
2017-Jul-23 21:59N 33°44' W 118°17'0 0.0
2017-Jul-23 21:03N 33°44' W 118°17'0 0.0
2017-Jul-23 20:56N 33°44' W 118°17'0 0.0
2017-Jul-23 18:33N 33°44' W 118°17'0 0.0
2017-Jul-23 18:06N 33°44' W 118°17'0 0.0
2017-Jul-23 16:57N 33°44' W 118°17'0 0.0
2017-Jul-23 15:42N 33°44' W 118°17'0 0.0
2017-Jul-23 15:20N 33°44' W 118°17'0 0.0
2017-Jul-23 14:46N 33°44' W 118°17'0 0.0
2017-Jul-23 11:44N 33°44' W 118°17'0 0.0
2017-Jul-23 10:41N 33°44' W 118°17'0 0.0
2017-Jul-23 10:24N 33°44' W 118°17'0 0.0
2017-Jul-23 07:20N 33°44' W 118°17'0 0.0
2017-Jul-23 05:42N 33°44' W 118°17'0 0.0
2017-Jul-23 03:20N 33°44' W 118°17'0 0.0
2017-Jul-23 02:59N 33°44' W 118°17'0 0.0
2017-Jul-23 02:30N 33°44' W 118°17'1 1.4
2017-Jul-23 02:00N 33°43' W 118°16'1 2.7
2017-Jul-23 01:30N 33°42' W 118°16'2 4.8
2017-Jul-23 01:00N 33°42' W 118°19'0 0.5
2017-Jul-23 00:30N 33°42' W 118°18'3 5.1
2017-Jul-23 00:00N 33°42' W 118°15'2 3.2
2017-Jul-22 23:31N 33°44' W 118°16'0 0.1
2017-Jul-22 18:24N 33°44' W 118°17'0 0.0
2017-Jul-22 16:32N 33°44' W 118°17'0 0.0
2017-Jul-22 11:02N 33°44' W 118°17'0 0.0
2017-Jul-22 10:46N 33°44' W 118°17'0 0.0
2017-Jul-22 07:36N 33°44' W 118°17'0 0.0
2017-Jul-22 07:20N 33°44' W 118°17'0 0.0
2017-Jul-22 05:51N 33°44' W 118°17'0 0.0
2017-Jul-22 04:25N 33°44' W 118°17'0 0.0
2017-Jul-22 03:53N 33°44' W 118°17'0 0.0
2017-Jul-22 03:02N 33°44' W 118°17'0 0.0
2017-Jul-22 02:08N 33°44' W 118°17'0 0.0
2017-Jul-22 01:08N 33°44' W 118°17'0 0.0
2017-Jul-22 01:01N 33°44' W 118°17'2 3.6
2017-Jul-22 00:31N 33°43' W 118°15'2 5.0
2017-Jul-22 00:01N 33°43' W 118°12'2 4.9
2017-Jul-21 23:31N 33°44' W 118°09'2 4.2
2017-Jul-21 23:00N 33°45' W 118°07'0 0.6
2017-Jul-21 22:28N 33°45' W 118°07'1 3.3
2017-Jul-21 22:01N 33°43' W 118°07'2 2.9
2017-Jul-21 21:21N 33°45' W 118°07'0 0.2
2017-Jul-21 20:46N 33°45' W 118°07'1 3.8
2017-Jul-21 20:31N 33°44' W 118°07'2 4.3
2017-Jul-21 20:01N 33°44' W 118°10'4 7.1
2017-Jul-21 19:30N 33°43' W 118°14'2 4.3
2017-Jul-21 19:01N 33°44' W 118°16'0 0.4
2017-Jul-21 18:09N 33°44' W 118°17'0 0.0
2017-Jul-21 17:42N 33°44' W 118°17'0 0.0
2017-Jul-21 17:28N 33°44' W 118°17'0 0.0
2017-Jul-21 16:06N 33°44' W 118°17'0 0.0
2017-Jul-21 15:53N 33°44' W 118°17'0 0.0
2017-Jul-21 15:26N 33°44' W 118°17'0 0.0
2017-Jul-21 11:37N 33°44' W 118°17'0 0.0
2017-Jul-21 09:28N 33°44' W 118°17'0 0.0
2017-Jul-21 08:31N 33°44' W 118°17'0 0.0
2017-Jul-21 08:08N 33°44' W 118°17'0 0.0
2017-Jul-21 06:40N 33°44' W 118°17'0 0.0
2017-Jul-21 05:11N 33°44' W 118°17'0 0.0
2017-Jul-21 04:57N 33°44' W 118°17'0 0.0
2017-Jul-21 04:16N 33°44' W 118°17'0 0.0
2017-Jul-21 03:19N 33°44' W 118°17'0 0.0
2017-Jul-21 01:05N 33°44' W 118°17'0 0.0
2017-Jul-21 00:48N 33°44' W 118°17'0 0.0
2017-Jul-21 00:30N 33°44' W 118°17'0 0.0
2017-Jul-20 23:27N 33°44' W 118°17'0 0.0
2017-Jul-20 22:38N 33°44' W 118°17'0 0.0
2017-Jul-20 22:23N 33°44' W 118°17'0 0.1
2017-Jul-20 22:00N 33°44' W 118°17'0 0.3
2017-Jul-20 21:30N 33°44' W 118°17'1 2.2
2017-Jul-20 21:00N 33°43' W 118°16'1 1.6
2017-Jul-20 20:28N 33°44' W 118°16'0 0.4
2017-Jul-20 19:29N 33°44' W 118°17'0 0.0
2017-Jul-20 18:48N 33°44' W 118°17'1 1.8
2017-Jul-20 18:30N 33°45' W 118°17'1 2.4
2017-Jul-20 18:01N 33°43' W 118°16'0 0.8
2017-Jul-20 17:26N 33°43' W 118°16'1 2.0
2017-Jul-20 17:00N 33°44' W 118°16'0 0.6
2017-Jul-20 16:25N 33°44' W 118°17'0 0.0
2017-Jul-20 15:58N 33°44' W 118°17'0 0.0
2017-Jul-20 15:30N 33°44' W 118°17'0 0.0
2017-Jul-20 14:56N 33°44' W 118°17'0 0.0
2017-Jul-20 13:57N 33°44' W 118°17'0 0.0
2017-Jul-20 12:58N 33°44' W 118°17'0 0.0
2017-Jul-20 12:06N 33°44' W 118°17'0 0.0
2017-Jul-20 12:00N 33°44' W 118°17'0 0.0
2017-Jul-20 11:17N 33°44' W 118°17'0 0.0
2017-Jul-20 10:59N 33°44' W 118°17'0 0.0
2017-Jul-20 09:48N 33°44' W 118°17'0 0.0
2017-Jul-20 09:30N 33°44' W 118°17'0 0.0
2017-Jul-20 08:57N 33°44' W 118°17'0 0.0
2017-Jul-20 08:30N 33°44' W 118°17'0 0.0
2017-Jul-20 07:55N 33°44' W 118°17'0 0.0
2017-Jul-20 07:30N 33°44' W 118°17'0 0.0
2017-Jul-20 06:48N 33°44' W 118°17'0 0.0
2017-Jul-20 06:30N 33°44' W 118°17'0 0.0
2017-Jul-20 05:53N 33°44' W 118°17'0 0.0
2017-Jul-20 05:30N 33°44' W 118°17'0 0.0
2017-Jul-20 05:00N 33°44' W 118°17'0 0.0
2017-Jul-20 04:30N 33°44' W 118°17'0 0.0
2017-Jul-20 03:58N 33°44' W 118°17'0 0.0
2017-Jul-20 03:27N 33°44' W 118°17'0 0.0
2017-Jul-20 02:58N 33°44' W 118°17'0 0.0
2017-Jul-20 02:26N 33°44' W 118°17'0 0.0
2017-Jul-20 01:55N 33°44' W 118°17'0 0.0
2017-Jul-20 01:29N 33°44' W 118°17'0 0.0
2017-Jul-20 01:00N 33°44' W 118°17'0 0.0
2017-Jul-20 00:30N 33°44' W 118°17'0 0.0
2017-Jul-19 23:53N 33°44' W 118°17'0 0.0
2017-Jul-19 23:27N 33°44' W 118°17'0 0.0
2017-Jul-19 22:57N 33°44' W 118°17'0 0.0
2017-Jul-19 22:27N 33°44' W 118°17'0 0.0
2017-Jul-19 21:50N 33°44' W 118°17'0 0.0
2017-Jul-19 21:29N 33°44' W 118°17'0 0.1
2017-Jul-19 21:00N 33°44' W 118°17'0 0.1
2017-Jul-19 20:30N 33°44' W 118°17'0 0.0
2017-Jul-19 20:00N 33°44' W 118°17'0 0.0
2017-Jul-19 19:30N 33°44' W 118°17'0 0.0
2017-Jul-19 19:00N 33°44' W 118°17'1 1.4
2017-Jul-19 18:30N 33°45' W 118°17'1 1.0
2017-Jul-19 18:00N 33°44' W 118°17'1 2.8
2017-Jul-19 17:30N 33°43' W 118°16'1 2.3
2017-Jul-19 16:57N 33°44' W 118°17'0 0.0
2017-Jul-19 16:29N 33°44' W 118°17'0 0.0
2017-Jul-19 15:58N 33°44' W 118°17'0 0.0
2017-Jul-19 15:27N 33°44' W 118°17'0 0.0
2017-Jul-19 14:39N 33°44' W 118°17'0 0.0
2017-Jul-19 14:20N 33°44' W 118°17'0 0.0
2017-Jul-19 14:00N 33°44' W 118°17'0 0.0
2017-Jul-19 13:28N 33°44' W 118°17'0 0.0
2017-Jul-19 12:57N 33°44' W 118°17'0 0.0
2017-Jul-19 12:25N 33°44' W 118°17'0 0.0
2017-Jul-19 11:54N 33°44' W 118°17'0 0.0
2017-Jul-19 11:26N 33°44' W 118°17'0 0.0
2017-Jul-19 10:56N 33°44' W 118°17'0 0.0
2017-Jul-19 10:23N 33°44' W 118°17'0 0.0
2017-Jul-19 09:44N 33°44' W 118°17'0 0.0
2017-Jul-19 09:30N 33°44' W 118°17'0 0.0
2017-Jul-19 08:56N 33°44' W 118°17'0 0.0
2017-Jul-19 08:25N 33°44' W 118°17'0 0.0
2017-Jul-19 07:04N 33°44' W 118°17'0 0.0
2017-Jul-19 06:08N 33°44' W 118°17'0 0.0
2017-Jul-19 05:59N 33°44' W 118°17'0 0.0
2017-Jul-19 05:29N 33°44' W 118°17'0 0.0
2017-Jul-19 04:59N 33°44' W 118°17'0 0.0
2017-Jul-19 04:18N 33°44' W 118°17'0 0.0
2017-Jul-19 04:00N 33°44' W 118°17'0 0.0
2017-Jul-19 03:30N 33°44' W 118°17'0 0.0
2017-Jul-19 02:55N 33°44' W 118°17'0 0.0
2017-Jul-19 02:29N 33°44' W 118°17'0 0.0
2017-Jul-19 02:00N 33°44' W 118°17'0 0.0
2017-Jul-19 01:28N 33°44' W 118°17'0 0.0
2017-Jul-19 00:55N 33°44' W 118°17'0 0.0
2017-Jul-19 00:22N 33°44' W 118°17'0 0.0
2017-Jul-18 23:57N 33°44' W 118°17'0 0.0
2017-Jul-18 23:30N 33°44' W 118°17'0 0.0
2017-Jul-18 23:00N 33°44' W 118°17'0 0.0
2017-Jul-18 22:30N 33°44' W 118°17'0 0.0
2017-Jul-18 22:01N 33°44' W 118°17'0 0.4
2017-Jul-18 21:30N 33°44' W 118°16'1 2.0
2017-Jul-18 21:00N 33°43' W 118°16'0 0.5
2017-Jul-18 20:30N 33°43' W 118°16'1 2.5
2017-Jul-18 19:57N 33°44' W 118°17'0 0.0
2017-Jul-18 19:29N 33°44' W 118°17'0 0.0
2017-Jul-18 19:00N 33°44' W 118°17'0 0.0
2017-Jul-18 18:14N 33°44' W 118°17'0 0.0
2017-Jul-18 17:57N 33°44' W 118°17'0 0.0
2017-Jul-18 17:28N 33°44' W 118°17'0 0.0
2017-Jul-18 16:58N 33°44' W 118°17'0 0.0
2017-Jul-18 16:21N 33°44' W 118°17'0 0.0
2017-Jul-18 15:58N 33°44' W 118°17'0 0.0
2017-Jul-18 15:30N 33°44' W 118°17'0 0.0
2017-Jul-18 14:57N 33°44' W 118°17'0 0.0
2017-Jul-18 13:56N 33°44' W 118°17'0 0.0
2017-Jul-18 13:26N 33°44' W 118°17'0 0.0
2017-Jul-18 13:00N 33°44' W 118°17'0 0.0
2017-Jul-18 12:30N 33°44' W 118°17'0 0.0
2017-Jul-18 11:58N 33°44' W 118°17'0 0.0
2017-Jul-18 11:29N 33°44' W 118°17'0 0.0
2017-Jul-18 11:00N 33°44' W 118°17'0 0.0
2017-Jul-18 10:28N 33°44' W 118°17'0 0.0
2017-Jul-18 09:57N 33°44' W 118°17'0 0.0
2017-Jul-18 09:28N 33°44' W 118°17'0 0.0
2017-Jul-18 08:54N 33°44' W 118°17'0 0.0
2017-Jul-18 08:29N 33°44' W 118°17'0 0.0
2017-Jul-18 07:59N 33°44' W 118°17'0 0.0
2017-Jul-18 06:48N 33°44' W 118°17'0 0.0
2017-Jul-18 06:24N 33°44' W 118°17'0 0.0
2017-Jul-18 05:11N 33°44' W 118°17'0 0.0
2017-Jul-18 04:59N 33°44' W 118°17'0 0.0
2017-Jul-18 04:30N 33°44' W 118°17'0 0.0
2017-Jul-18 03:57N 33°44' W 118°17'0 0.0
2017-Jul-18 03:27N 33°44' W 118°17'0 0.0
2017-Jul-18 02:54N 33°44' W 118°17'0 0.0
2017-Jul-18 02:14N 33°44' W 118°17'0 0.0
2017-Jul-18 01:50N 33°44' W 118°17'0 0.0
2017-Jul-18 01:28N 33°44' W 118°17'0 0.0
2017-Jul-18 00:56N 33°44' W 118°17'0 0.0
2017-Jul-18 00:30N 33°44' W 118°17'0 0.0
2017-Jul-17 23:59N 33°44' W 118°17'0 0.0
2017-Jul-17 23:26N 33°44' W 118°17'0 0.0
2017-Jul-17 22:53N 33°44' W 118°17'0 0.0
2017-Jul-17 22:15N 33°44' W 118°17'0 0.0
2017-Jul-17 21:57N 33°44' W 118°17'0 0.6
2017-Jul-17 21:30N 33°44' W 118°16'1 2.5
2017-Jul-17 21:00N 33°43' W 118°16'1 2.6
2017-Jul-17 20:30N 33°44' W 118°16'0 0.4
2017-Jul-17 19:54N 33°44' W 118°17'0 0.0
2017-Jul-17 19:30N 33°44' W 118°17'0 0.0
2017-Jul-17 19:00N 33°44' W 118°17'0 0.0
2017-Jul-17 18:29N 33°44' W 118°17'0 0.2
2017-Jul-17 18:00N 33°44' W 118°17'1 2.3
2017-Jul-17 17:30N 33°43' W 118°16'1 2.0
2017-Jul-17 17:00N 33°44' W 118°17'  
Track history (hours):
 
Tides and Currents Weather Stations Pressure Air Temp Water Temp Dewpoint Dewpoint Depression Visibility Wind Speed Wind Dir Waves Ship Positions

Exy Johnson (United States)

Ship's website: http://www.lamitopsail.org/index.asp

Owner: Los Angeles Maritime Institute, San Pedro, CA. More information available from US FCC via Universal Licensing System and Coast Guard Vessel Documentation Center.

Last reported at 2017-Jul-26 03:30 UTC. Time now 2017-Jul-27 00:37 UTC.
Position N 33°24' W 118°22'.

Length 34 m; draft 3.7 m.

Type: Sailing vessel. MMSI: 366883970.

Date/timePositionNaut miles runAvg speedWind from/ knotsBaromVisibWave heightAir tempDewpointWater temp
2017-Jul-26 03:30N 33°24' W 118°22'0 0.0
2017-Jul-26 02:34N 33°24' W 118°22'16 4.4
2017-Jul-25 22:54N 33°39' W 118°16'2 5.1
2017-Jul-25 22:30N 33°41' W 118°15'2 3.0
2017-Jul-25 21:59N 33°43' W 118°15'1 2.1
2017-Jul-25 21:30N 33°43' W 118°16'1 0.7
2017-Jul-25 20:17N 33°44' W 118°17'0 0.0
2017-Jul-25 20:00N 33°44' W 118°17'0 0.0
2017-Jul-25 19:30N 33°44' W 118°17'0 0.3
2017-Jul-25 18:58N 33°44' W 118°17'2 3.5
2017-Jul-25 18:30N 33°43' W 118°15'2 4.2
2017-Jul-25 18:00N 33°43' W 118°13'3 0.2
2017-Jul-25 04:41N 33°45' W 118°10'0 0.1
2017-Jul-25 04:23N 33°45' W 118°10'0 0.0
2017-Jul-25 03:19N 33°45' W 118°10'0 0.0
2017-Jul-25 02:56N 33°45' W 118°10'0 0.1
2017-Jul-25 02:23N 33°45' W 118°10'0 0.5
2017-Jul-25 02:00N 33°45' W 118°10'2 3.4
2017-Jul-25 01:30N 33°44' W 118°11'2 4.5
2017-Jul-25 01:00N 33°42' W 118°10'2 3.3
2017-Jul-25 00:29N 33°40' W 118°09'2 3.3
2017-Jul-24 23:59N 33°38' W 118°09'1 2.3
2017-Jul-24 23:30N 33°39' W 118°10'2 4.0
2017-Jul-24 23:00N 33°41' W 118°12'2 3.8
2017-Jul-24 22:30N 33°42' W 118°14'2 3.1
2017-Jul-24 22:00N 33°43' W 118°15'1 1.6
2017-Jul-24 21:29N 33°43' W 118°16'0 0.5
2017-Jul-24 21:00N 33°43' W 118°16'0 0.2
2017-Jul-24 20:30N 33°43' W 118°16'1 1.8
2017-Jul-24 19:59N 33°44' W 118°17'0 0.0
2017-Jul-24 17:58N 33°44' W 118°17'0 0.0
2017-Jul-24 10:06N 33°44' W 118°17'0 0.0
2017-Jul-24 09:20N 33°44' W 118°17'0 0.0
2017-Jul-24 08:54N 33°44' W 118°17'0 0.0
2017-Jul-24 05:03N 33°44' W 118°17'0 0.0
2017-Jul-24 04:56N 33°44' W 118°17'0 0.0
2017-Jul-24 03:05N 33°44' W 118°17'0 0.0
2017-Jul-24 02:46N 33°44' W 118°17'0 0.0
2017-Jul-24 02:25N 33°44' W 118°17'0 0.0
2017-Jul-24 01:58N 33°44' W 118°17'0 0.0
2017-Jul-24 01:20N 33°44' W 118°17'0 0.0
2017-Jul-24 00:16N 33°44' W 118°17'0 0.0
2017-Jul-23 23:53N 33°44' W 118°17'0 0.0
2017-Jul-23 22:30N 33°44' W 118°17'0 0.0
2017-Jul-23 21:59N 33°44' W 118°17'0 0.0
2017-Jul-23 21:03N 33°44' W 118°17'0 0.0
2017-Jul-23 20:56N 33°44' W 118°17'0 0.0
2017-Jul-23 18:33N 33°44' W 118°17'0 0.0
2017-Jul-23 18:06N 33°44' W 118°17'0 0.0
2017-Jul-23 16:57N 33°44' W 118°17'0 0.0
2017-Jul-23 15:42N 33°44' W 118°17'0 0.0
2017-Jul-23 15:20N 33°44' W 118°17'0 0.0
2017-Jul-23 14:46N 33°44' W 118°17'0 0.0
2017-Jul-23 11:44N 33°44' W 118°17'0 0.0
2017-Jul-23 10:41N 33°44' W 118°17'0 0.0
2017-Jul-23 10:24N 33°44' W 118°17'0 0.0
2017-Jul-23 07:20N 33°44' W 118°17'0 0.0
2017-Jul-23 05:42N 33°44' W 118°17'0 0.0
2017-Jul-23 03:20N 33°44' W 118°17'0 0.0
2017-Jul-23 02:59N 33°44' W 118°17'0 0.0
2017-Jul-23 02:30N 33°44' W 118°17'1 1.4
2017-Jul-23 02:00N 33°43' W 118°16'1 2.7
2017-Jul-23 01:30N 33°42' W 118°16'2 4.8
2017-Jul-23 01:00N 33°42' W 118°19'0 0.5
2017-Jul-23 00:30N 33°42' W 118°18'3 5.1
2017-Jul-23 00:00N 33°42' W 118°15'2 3.2
2017-Jul-22 23:31N 33°44' W 118°16'0 0.1
2017-Jul-22 18:24N 33°44' W 118°17'0 0.0
2017-Jul-22 16:32N 33°44' W 118°17'0 0.0
2017-Jul-22 11:02N 33°44' W 118°17'0 0.0
2017-Jul-22 10:46N 33°44' W 118°17'0 0.0
2017-Jul-22 07:36N 33°44' W 118°17'0 0.0
2017-Jul-22 07:20N 33°44' W 118°17'0 0.0
2017-Jul-22 05:51N 33°44' W 118°17'0 0.0
2017-Jul-22 04:25N 33°44' W 118°17'0 0.0
2017-Jul-22 03:53N 33°44' W 118°17'0 0.0
2017-Jul-22 03:02N 33°44' W 118°17'0 0.0
2017-Jul-22 02:08N 33°44' W 118°17'0 0.0
2017-Jul-22 01:08N 33°44' W 118°17'0 0.0
2017-Jul-22 01:01N 33°44' W 118°17'2 3.6
2017-Jul-22 00:31N 33°43' W 118°15'2 5.0
2017-Jul-22 00:01N 33°43' W 118°12'2 4.9
2017-Jul-21 23:31N 33°44' W 118°09'2 4.2
2017-Jul-21 23:00N 33°45' W 118°07'0 0.6
2017-Jul-21 22:28N 33°45' W 118°07'1 3.3
2017-Jul-21 22:01N 33°43' W 118°07'2 2.9
2017-Jul-21 21:21N 33°45' W 118°07'0 0.2
2017-Jul-21 20:46N 33°45' W 118°07'1 3.8
2017-Jul-21 20:31N 33°44' W 118°07'2 4.3
2017-Jul-21 20:01N 33°44' W 118°10'4 7.1
2017-Jul-21 19:30N 33°43' W 118°14'2 4.3
2017-Jul-21 19:01N 33°44' W 118°16'0 0.4
2017-Jul-21 18:09N 33°44' W 118°17'0 0.0
2017-Jul-21 17:42N 33°44' W 118°17'0 0.0
2017-Jul-21 17:28N 33°44' W 118°17'0 0.0
2017-Jul-21 16:06N 33°44' W 118°17'0 0.0
2017-Jul-21 15:53N 33°44' W 118°17'0 0.0
2017-Jul-21 15:26N 33°44' W 118°17'0 0.0
2017-Jul-21 11:37N 33°44' W 118°17'0 0.0
2017-Jul-21 09:28N 33°44' W 118°17'0 0.0
2017-Jul-21 08:31N 33°44' W 118°17'0 0.0
2017-Jul-21 08:08N 33°44' W 118°17'0 0.0
2017-Jul-21 06:40N 33°44' W 118°17'0 0.0
2017-Jul-21 05:11N 33°44' W 118°17'0 0.0
2017-Jul-21 04:57N 33°44' W 118°17'0 0.0
2017-Jul-21 04:16N 33°44' W 118°17'0 0.0
2017-Jul-21 03:19N 33°44' W 118°17'0 0.0
2017-Jul-21 01:05N 33°44' W 118°17'0 0.0
2017-Jul-21 00:48N 33°44' W 118°17'0 0.0
2017-Jul-21 00:30N 33°44' W 118°17'0 0.0
2017-Jul-20 23:27N 33°44' W 118°17'0 0.0
2017-Jul-20 22:38N 33°44' W 118°17'0 0.0
2017-Jul-20 22:23N 33°44' W 118°17'0 0.1
2017-Jul-20 22:00N 33°44' W 118°17'0 0.3
2017-Jul-20 21:30N 33°44' W 118°17'1 2.2
2017-Jul-20 21:00N 33°43' W 118°16'1 1.6
2017-Jul-20 20:28N 33°44' W 118°16'0 0.4
2017-Jul-20 19:29N 33°44' W 118°17'0 0.0
2017-Jul-20 18:48N 33°44' W 118°17'1 1.8
2017-Jul-20 18:30N 33°45' W 118°17'1 2.4
2017-Jul-20 18:01N 33°43' W 118°16'0 0.8
2017-Jul-20 17:26N 33°43' W 118°16'1 2.0
2017-Jul-20 17:00N 33°44' W 118°16'0 0.6
2017-Jul-20 16:25N 33°44' W 118°17'0 0.0
2017-Jul-20 15:58N 33°44' W 118°17'0 0.0
2017-Jul-20 15:30N 33°44' W 118°17'0 0.0
2017-Jul-20 14:56N 33°44' W 118°17'0 0.0
2017-Jul-20 13:57N 33°44' W 118°17'0 0.0
2017-Jul-20 12:58N 33°44' W 118°17'0 0.0
2017-Jul-20 12:06N 33°44' W 118°17'0 0.0
2017-Jul-20 12:00N 33°44' W 118°17'0 0.0
2017-Jul-20 11:17N 33°44' W 118°17'0 0.0
2017-Jul-20 10:59N 33°44' W 118°17'0 0.0
2017-Jul-20 09:48N 33°44' W 118°17'0 0.0
2017-Jul-20 09:30N 33°44' W 118°17'0 0.0
2017-Jul-20 08:57N 33°44' W 118°17'0 0.0
2017-Jul-20 08:30N 33°44' W 118°17'0 0.0
2017-Jul-20 07:55N 33°44' W 118°17'0 0.0
2017-Jul-20 07:30N 33°44' W 118°17'0 0.0
2017-Jul-20 06:48N 33°44' W 118°17'0 0.0
2017-Jul-20 06:30N 33°44' W 118°17'0 0.0
2017-Jul-20 05:53N 33°44' W 118°17'0 0.0
2017-Jul-20 05:30N 33°44' W 118°17'0 0.0
2017-Jul-20 05:00N 33°44' W 118°17'0 0.0
2017-Jul-20 04:30N 33°44' W 118°17'0 0.0
2017-Jul-20 03:58N 33°44' W 118°17'0 0.0
2017-Jul-20 03:27N 33°44' W 118°17'0 0.0
2017-Jul-20 02:58N 33°44' W 118°17'0 0.0
2017-Jul-20 02:26N 33°44' W 118°17'0 0.0
2017-Jul-20 01:55N 33°44' W 118°17'0 0.0
2017-Jul-20 01:29N 33°44' W 118°17'0 0.0
2017-Jul-20 01:00N 33°44' W 118°17'0 0.0
2017-Jul-20 00:30N 33°44' W 118°17'0 0.0
2017-Jul-19 23:53N 33°44' W 118°17'0 0.0
2017-Jul-19 23:27N 33°44' W 118°17'0 0.0
2017-Jul-19 22:57N 33°44' W 118°17'0 0.0
2017-Jul-19 22:27N 33°44' W 118°17'0 0.0
2017-Jul-19 21:50N 33°44' W 118°17'0 0.0
2017-Jul-19 21:29N 33°44' W 118°17'0 0.1
2017-Jul-19 21:00N 33°44' W 118°17'0 0.1
2017-Jul-19 20:30N 33°44' W 118°17'0 0.0
2017-Jul-19 20:00N 33°44' W 118°17'0 0.0
2017-Jul-19 19:30N 33°44' W 118°17'0 0.0
2017-Jul-19 19:00N 33°44' W 118°17'1 1.4
2017-Jul-19 18:30N 33°45' W 118°17'1 1.0
2017-Jul-19 18:00N 33°44' W 118°17'1 2.8
2017-Jul-19 17:30N 33°43' W 118°16'1 2.3
2017-Jul-19 16:57N 33°44' W 118°17'0 0.0
2017-Jul-19 16:29N 33°44' W 118°17'0 0.0
2017-Jul-19 15:58N 33°44' W 118°17'0 0.0
2017-Jul-19 15:27N 33°44' W 118°17'0 0.0
2017-Jul-19 14:39N 33°44' W 118°17'0 0.0
2017-Jul-19 14:20N 33°44' W 118°17'0 0.0
2017-Jul-19 14:00N 33°44' W 118°17'0 0.0
2017-Jul-19 13:28N 33°44' W 118°17'0 0.0
2017-Jul-19 12:57N 33°44' W 118°17'0 0.0
2017-Jul-19 12:25N 33°44' W 118°17'0 0.0
2017-Jul-19 11:54N 33°44' W 118°17'0 0.0
2017-Jul-19 11:26N 33°44' W 118°17'0 0.0
2017-Jul-19 10:56N 33°44' W 118°17'0 0.0
2017-Jul-19 10:23N 33°44' W 118°17'0 0.0
2017-Jul-19 09:44N 33°44' W 118°17'0 0.0
2017-Jul-19 09:30N 33°44' W 118°17'0 0.0
2017-Jul-19 08:56N 33°44' W 118°17'0 0.0
2017-Jul-19 08:25N 33°44' W 118°17'0 0.0
2017-Jul-19 07:04N 33°44' W 118°17'0 0.0
2017-Jul-19 06:08N 33°44' W 118°17'0 0.0
2017-Jul-19 05:59N 33°44' W 118°17'0 0.0
2017-Jul-19 05:29N 33°44' W 118°17'0 0.0
2017-Jul-19 04:59N 33°44' W 118°17'0 0.0
2017-Jul-19 04:18N 33°44' W 118°17'0 0.0
2017-Jul-19 04:00N 33°44' W 118°17'0 0.0
2017-Jul-19 03:30N 33°44' W 118°17'0 0.0
2017-Jul-19 02:55N 33°44' W 118°17'0 0.0
2017-Jul-19 02:29N 33°44' W 118°17'0 0.0
2017-Jul-19 02:00N 33°44' W 118°17'0 0.0
2017-Jul-19 01:28N 33°44' W 118°17'0 0.0
2017-Jul-19 00:55N 33°44' W 118°17'0 0.0
2017-Jul-19 00:22N 33°44' W 118°17'0 0.0
2017-Jul-18 23:57N 33°44' W 118°17'0 0.0
2017-Jul-18 23:30N 33°44' W 118°17'0 0.0
2017-Jul-18 23:00N 33°44' W 118°17'0 0.0
2017-Jul-18 22:30N 33°44' W 118°17'0 0.0
2017-Jul-18 22:01N 33°44' W 118°17'0 0.4
2017-Jul-18 21:30N 33°44' W 118°16'1 2.0
2017-Jul-18 21:00N 33°43' W 118°16'0 0.5
2017-Jul-18 20:30N 33°43' W 118°16'1 2.5
2017-Jul-18 19:57N 33°44' W 118°17'0 0.0
2017-Jul-18 19:29N 33°44' W 118°17'0 0.0
2017-Jul-18 19:00N 33°44' W 118°17'0 0.0
2017-Jul-18 18:14N 33°44' W 118°17'0 0.0
2017-Jul-18 17:57N 33°44' W 118°17'0 0.0
2017-Jul-18 17:28N 33°44' W 118°17'0 0.0
2017-Jul-18 16:58N 33°44' W 118°17'0 0.0
2017-Jul-18 16:21N 33°44' W 118°17'0 0.0
2017-Jul-18 15:58N 33°44' W 118°17'0 0.0
2017-Jul-18 15:30N 33°44' W 118°17'0 0.0
2017-Jul-18 14:57N 33°44' W 118°17'0 0.0
2017-Jul-18 13:56N 33°44' W 118°17'0 0.0
2017-Jul-18 13:26N 33°44' W 118°17'0 0.0
2017-Jul-18 13:00N 33°44' W 118°17'0 0.0
2017-Jul-18 12:30N 33°44' W 118°17'0 0.0
2017-Jul-18 11:58N 33°44' W 118°17'0 0.0
2017-Jul-18 11:29N 33°44' W 118°17'0 0.0
2017-Jul-18 11:00N 33°44' W 118°17'0 0.0
2017-Jul-18 10:28N 33°44' W 118°17'0 0.0
2017-Jul-18 09:57N 33°44' W 118°17'0 0.0
2017-Jul-18 09:28N 33°44' W 118°17'0 0.0
2017-Jul-18 08:54N 33°44' W 118°17'0 0.0
2017-Jul-18 08:29N 33°44' W 118°17'0 0.0
2017-Jul-18 07:59N 33°44' W 118°17'0 0.0
2017-Jul-18 06:48N 33°44' W 118°17'0 0.0
2017-Jul-18 06:24N 33°44' W 118°17'0 0.0
2017-Jul-18 05:11N 33°44' W 118°17'0 0.0
2017-Jul-18 04:59N 33°44' W 118°17'0 0.0
2017-Jul-18 04:30N 33°44' W 118°17'0 0.0
2017-Jul-18 03:57N 33°44' W 118°17'0 0.0
2017-Jul-18 03:27N 33°44' W 118°17'0 0.0
2017-Jul-18 02:54N 33°44' W 118°17'0 0.0
2017-Jul-18 02:14N 33°44' W 118°17'0 0.0
2017-Jul-18 01:50N 33°44' W 118°17'0 0.0
2017-Jul-18 01:28N 33°44' W 118°17'0 0.0
2017-Jul-18 00:56N 33°44' W 118°17'0 0.0
2017-Jul-18 00:30N 33°44' W 118°17'0 0.0
2017-Jul-17 23:59N 33°44' W 118°17'0 0.0
2017-Jul-17 23:26N 33°44' W 118°17'0 0.0
2017-Jul-17 22:53N 33°44' W 118°17'0 0.0
2017-Jul-17 22:15N 33°44' W 118°17'0 0.0
2017-Jul-17 21:57N 33°44' W 118°17'0 0.6
2017-Jul-17 21:30N 33°44' W 118°16'1 2.5
2017-Jul-17 21:00N 33°43' W 118°16'1 2.6
2017-Jul-17 20:30N 33°44' W 118°16'0 0.4
2017-Jul-17 19:54N 33°44' W 118°17'0 0.0
2017-Jul-17 19:30N 33°44' W 118°17'0 0.0
2017-Jul-17 19:00N 33°44' W 118°17'0 0.0
2017-Jul-17 18:29N 33°44' W 118°17'0 0.2
2017-Jul-17 18:00N 33°44' W 118°17'1 2.3
2017-Jul-17 17:30N 33°43' W 118°16'1 2.0
2017-Jul-17 17:00N 33°44' W 118°17'  

Dump ship's entire track history